createdAt,value
2022-08-25T00:01:54.025Z,72.45
2022-08-25T00:05:57.356Z,73.02
2022-08-25T00:10:01.192Z,72.01
2022-08-25T00:14:11.054Z,72.32
2022-08-25T00:18:19.886Z,72.14
2022-08-25T00:22:24.064Z,71.89
2022-08-25T00:26:27.842Z,71.87
2022-08-25T00:30:33.080Z,71.17
2022-08-25T00:34:39.974Z,71.97
2022-08-25T00:38:45.909Z,72.50
2022-08-25T00:42:49.755Z,72.86
2022-08-25T00:46:56.600Z,72.68
2022-08-25T00:51:00.987Z,72.77
2022-08-25T00:55:08.687Z,72.28
2022-08-25T00:59:17.029Z,71.65
2022-08-25T01:03:25.290Z,71.30
2022-08-25T01:07:38.301Z,71.17
2022-08-25T01:11:43.345Z,71.36
2022-08-25T01:15:47.834Z,71.36
2022-08-25T01:19:53.123Z,71.81
2022-08-25T01:23:59.711Z,71.83
2022-08-25T01:28:03.447Z,72.73
2022-08-25T01:32:09.506Z,72.87
2022-08-25T01:36:13.090Z,72.66
2022-08-25T01:40:18.444Z,72.15
2022-08-25T01:44:21.709Z,71.81
2022-08-25T01:48:27.381Z,70.85
2022-08-25T01:52:34.813Z,71.46
2022-08-25T01:56:40.016Z,72.35
2022-08-25T02:00:47.235Z,72.35
2022-08-25T02:04:50.795Z,73.14
2022-08-25T02:08:56.499Z,73.41
2022-08-25T02:13:01.449Z,72.99
2022-08-25T02:17:06.868Z,73.08
2022-08-25T02:21:11.513Z,73.10
2022-08-25T02:25:16.208Z,73.16
2022-08-25T02:29:21.309Z,72.62
2022-08-25T02:33:24.923Z,72.12
2022-08-25T02:37:28.579Z,72.04
2022-08-25T02:41:31.934Z,72.00
2022-08-25T02:45:37.293Z,72.05
2022-08-25T02:49:40.899Z,72.68
2022-08-25T02:53:47.603Z,71.76
2022-08-25T02:57:51.332Z,72.62
2022-08-25T03:01:56.118Z,72.80
2022-08-25T03:05:59.679Z,72.87
2022-08-25T03:10:07.107Z,73.38
2022-08-25T03:14:11.622Z,73.05
2022-08-25T03:18:16.660Z,73.15
2022-08-25T03:22:21.547Z,73.82
2022-08-25T03:26:43.234Z,73.20
2022-08-25T03:30:46.942Z,73.58
2022-08-25T03:34:59.072Z,73.85
2022-08-25T03:39:02.870Z,73.93
2022-08-25T03:43:06.299Z,73.23
2022-08-25T03:47:09.954Z,73.20
2022-08-25T03:51:20.334Z,73.80
2022-08-25T03:55:25.871Z,74.00
2022-08-25T03:59:29.912Z,73.94
2022-08-25T04:03:33.777Z,73.41
2022-08-25T04:07:41.567Z,73.28
2022-08-25T04:11:45.123Z,73.64
2022-08-25T04:15:49.720Z,73.78
2022-08-25T04:19:52.873Z,74.08
2022-08-25T04:23:59.180Z,73.70
2022-08-25T04:28:02.749Z,74.03
2022-08-25T04:32:06.808Z,73.33
2022-08-25T04:36:13.494Z,73.55
2022-08-25T04:40:18.414Z,73.77
2022-08-25T04:44:22.464Z,73.68
2022-08-25T04:48:26.245Z,72.26
2022-08-25T04:52:29.802Z,72.25
2022-08-25T04:56:35.218Z,71.93
2022-08-25T05:00:39.550Z,72.25
2022-08-25T05:04:43.374Z,72.82
2022-08-25T05:08:47.101Z,72.05
2022-08-25T05:12:52.565Z,72.32
2022-08-25T05:16:57.520Z,72.03
2022-08-25T05:21:04.409Z,71.09
2022-08-25T05:25:09.175Z,70.71
2022-08-25T05:29:14.934Z,70.96
2022-08-25T05:33:18.969Z,70.92
2022-08-25T05:37:22.474Z,71.40
2022-08-25T05:41:30.334Z,70.81
2022-08-25T05:45:35.243Z,70.07
2022-08-25T05:49:38.487Z,69.38
2022-08-25T05:53:44.216Z,69.05
2022-08-25T05:57:47.888Z,69.38
2022-08-25T06:02:10.132Z,68.89
2022-08-25T06:06:14.116Z,68.92
2022-08-25T06:10:19.002Z,68.35
2022-08-25T06:14:22.518Z,68.97
2022-08-25T06:18:27.917Z,68.84
2022-08-25T06:22:30.972Z,68.83
2022-08-25T06:26:35.365Z,68.43
2022-08-25T06:30:41.080Z,69.04
2022-08-25T06:34:46.191Z,68.02
2022-08-25T06:38:50.163Z,68.18
2022-08-25T06:42:53.388Z,68.90
2022-08-25T06:46:57.199Z,67.01
2022-08-25T06:51:02.146Z,66.00
2022-08-25T06:55:07.157Z,65.17
2022-08-25T06:59:11.375Z,63.99
2022-08-25T07:03:15.257Z,64.25
2022-08-25T07:07:20.232Z,63.18
2022-08-25T07:11:24.097Z,62.10
2022-08-25T07:15:28.076Z,60.55
2022-08-25T07:19:31.347Z,58.50
2022-08-25T07:23:36.564Z,58.89
2022-08-25T07:27:42.313Z,58.06
2022-08-25T07:31:46.206Z,57.20
2022-08-25T07:35:50.488Z,57.23
2022-08-25T07:39:56.586Z,55.49
2022-08-25T07:44:00.796Z,55.27
2022-08-25T07:48:07.084Z,55.02
2022-08-25T07:52:10.751Z,52.97
2022-08-25T07:56:17.403Z,55.83
2022-08-25T08:00:22.298Z,52.78
2022-08-25T08:04:28.172Z,53.68
2022-08-25T08:08:32.570Z,53.06
2022-08-25T08:12:38.896Z,54.08
2022-08-25T08:16:41.956Z,53.09
2022-08-25T08:20:46.471Z,52.97
2022-08-25T08:24:54.738Z,53.56
2022-08-25T08:29:02.576Z,51.91
2022-08-25T08:33:11.947Z,52.12
2022-08-25T08:37:16.710Z,51.65
2022-08-25T08:42:11.150Z,54.14
2022-08-25T08:46:18.104Z,51.09
2022-08-25T08:50:32.992Z,52.58
2022-08-25T08:54:41.407Z,51.45
2022-08-25T08:58:50.143Z,50.01
2022-08-25T09:03:02.338Z,53.20
2022-08-25T09:07:14.077Z,52.49
2022-08-25T09:11:30.581Z,51.07
2022-08-25T09:15:58.391Z,50.20
2022-08-25T09:20:31.394Z,50.20
2022-08-25T09:24:50.685Z,50.15
2022-08-25T09:29:01.390Z,47.57
2022-08-25T09:33:05.907Z,46.55
2022-08-25T09:37:10.422Z,47.24
2022-08-25T09:41:19.517Z,47.66
2022-08-25T09:45:35.311Z,49.37
2022-08-25T09:49:41.498Z,45.95
2022-08-25T09:53:53.023Z,45.71
2022-08-25T09:57:58.546Z,44.97
2022-08-25T10:02:04.732Z,44.79
2022-08-25T10:06:13.960Z,43.86
2022-08-25T10:10:24.109Z,43.10
2022-08-25T10:14:35.645Z,42.98
2022-08-25T10:18:40.264Z,43.75
2022-08-25T10:22:48.207Z,43.60
2022-08-25T10:27:02.476Z,43.96
2022-08-25T10:31:17.116Z,42.36
2022-08-25T10:35:24.840Z,43.35
2022-08-25T10:39:40.879Z,44.90
2022-08-25T10:43:54.628Z,44.72
2022-08-25T10:48:44.893Z,45.95
2022-08-25T10:53:09.988Z,45.08
2022-08-25T10:57:23.918Z,45.50
2022-08-25T11:01:43.907Z,46.13
2022-08-25T11:05:53.187Z,45.66
2022-08-25T11:10:01.769Z,45.44
2022-08-25T11:18:35.462Z,46.11
2022-08-25T11:22:43.865Z,45.56
2022-08-25T11:26:58.461Z,47.31
2022-08-25T11:31:04.186Z,46.76
2022-08-25T11:35:14.124Z,47.08
2022-08-25T11:39:24.716Z,47.11
2022-08-25T11:43:41.463Z,46.35
2022-08-25T11:48:02.092Z,46.47
2022-08-25T11:52:30.682Z,46.22
2022-08-25T11:56:42.690Z,45.38
2022-08-25T12:00:46.177Z,45.07
2022-08-25T12:04:53.015Z,45.50
2022-08-25T12:09:22.224Z,45.94
2022-08-25T12:13:30.043Z,44.22
2022-08-25T12:17:40.927Z,44.62
2022-08-25T12:21:44.606Z,43.44
2022-08-25T12:25:56.990Z,43.92
2022-08-25T12:30:06.171Z,42.41
2022-08-25T12:34:29.519Z,42.75
2022-08-25T12:38:42.509Z,41.00
2022-08-25T12:42:48.626Z,41.41
2022-08-25T12:47:09.043Z,43.38
2022-08-25T12:51:20.378Z,42.10
2022-08-25T12:55:30.371Z,42.23
2022-08-25T12:59:38.949Z,41.92
2022-08-25T13:04:09.188Z,42.59
2022-08-25T13:08:44.763Z,43.28
2022-08-25T13:12:57.202Z,42.69
2022-08-25T13:17:03.515Z,42.84
2022-08-25T13:21:15.457Z,43.09
2022-08-25T13:25:23.055Z,41.89
2022-08-25T13:29:51.987Z,43.08
2022-08-25T13:34:00.415Z,42.68
2022-08-25T13:44:13.101Z,42.65
2022-08-25T14:10:01.791Z,41.70
2022-08-25T14:14:08.629Z,41.25
2022-08-25T14:18:17.108Z,40.10
2022-08-25T14:22:24.178Z,41.10
2022-08-25T14:26:28.750Z,39.30
2022-08-25T14:30:33.279Z,40.43
2022-08-25T14:34:39.606Z,39.79
2022-08-25T14:38:47.041Z,40.56
2022-08-25T14:42:58.158Z,38.82
2022-08-25T14:47:03.462Z,38.87
2022-08-25T14:51:09.818Z,38.75
2022-08-25T14:55:30.795Z,39.99
2022-08-25T14:59:35.411Z,41.40
2022-08-25T15:03:41.593Z,36.97
2022-08-25T15:08:03.737Z,38.20
2022-08-25T15:12:10.647Z,38.12
2022-08-25T15:16:35.275Z,38.81
2022-08-25T15:20:42.111Z,38.63
2022-08-25T15:24:45.664Z,38.96
2022-08-25T15:28:52.064Z,39.44
2022-08-25T15:32:56.515Z,39.49
2022-08-25T15:37:01.864Z,41.18
2022-08-25T15:41:06.654Z,39.90
2022-08-25T15:45:14.609Z,40.51
2022-08-25T15:49:20.841Z,40.13
2022-08-25T15:53:27.998Z,40.34
2022-08-25T15:57:31.642Z,39.69
2022-08-25T16:01:37.810Z,40.20
2022-08-25T16:05:48.110Z,39.80
2022-08-25T16:09:52.748Z,41.07
2022-08-25T16:13:58.839Z,41.26
2022-08-25T16:18:05.391Z,42.14
2022-08-25T16:22:11.131Z,43.53
2022-08-25T16:26:14.833Z,42.31
2022-08-25T16:30:18.549Z,43.43
2022-08-25T16:34:24.453Z,44.27
2022-08-25T16:38:27.985Z,45.41
2022-08-25T16:42:31.262Z,45.87
2022-08-25T16:46:36.177Z,47.09
2022-08-25T16:50:41.780Z,47.88
2022-08-25T16:55:02.757Z,48.03
2022-08-25T16:59:07.949Z,49.25
2022-08-25T17:03:11.662Z,50.39
2022-08-25T17:07:16.157Z,50.87
2022-08-25T17:11:30.156Z,51.23
2022-08-25T17:15:35.107Z,52.73
2022-08-25T17:19:39.480Z,53.18
2022-08-25T17:23:46.764Z,53.64
2022-08-25T17:27:50.310Z,54.54
2022-08-25T17:31:53.819Z,54.58
2022-08-25T17:35:58.858Z,55.27
2022-08-25T17:40:04.639Z,55.84
2022-08-25T17:44:09.231Z,57.15
2022-08-25T17:48:14.118Z,57.59
2022-08-25T17:52:19.279Z,58.06
2022-08-25T17:56:28.418Z,57.21
2022-08-25T18:00:33.534Z,57.87
2022-08-25T18:04:39.176Z,58.76
2022-08-25T18:08:44.472Z,59.59
2022-08-25T18:12:58.117Z,59.71
2022-08-25T18:17:04.298Z,60.52
2022-08-25T18:21:12.425Z,59.79
2022-08-25T18:25:17.245Z,61.39
2022-08-25T18:29:22.564Z,61.48
2022-08-25T18:33:26.164Z,61.71
2022-08-25T18:37:51.473Z,61.99
2022-08-25T18:41:56.429Z,62.06
2022-08-25T18:46:02.026Z,61.90
2022-08-25T18:50:09.618Z,63.08
2022-08-25T18:54:23.386Z,63.27
2022-08-25T18:58:28.576Z,63.57
2022-08-25T19:02:34.509Z,63.48
2022-08-25T19:06:38.129Z,64.61
2022-08-25T19:10:43.048Z,64.16
2022-08-25T19:14:47.807Z,65.14
2022-08-25T19:18:52.520Z,64.63
2022-08-25T19:22:55.842Z,64.67
2022-08-25T19:27:03.220Z,64.52
2022-08-25T19:31:08.778Z,65.38
2022-08-25T19:35:20.827Z,64.50
2022-08-25T19:39:26.155Z,65.61
2022-08-25T19:43:30.128Z,65.93
2022-08-25T19:47:34.101Z,65.82
2022-08-25T19:51:41.174Z,65.53
2022-08-25T19:55:48.063Z,65.64
2022-08-25T19:59:52.535Z,66.04
2022-08-25T20:03:55.629Z,66.27
2022-08-25T20:08:02.451Z,66.04
2022-08-25T20:12:06.782Z,66.15
2022-08-25T20:16:12.476Z,66.94
2022-08-25T20:20:20.319Z,66.40
2022-08-25T20:24:42.587Z,66.14
2022-08-25T20:28:47.118Z,67.49
2022-08-25T20:32:50.993Z,67.34
2022-08-25T20:36:54.337Z,67.67
2022-08-25T20:40:59.438Z,67.50
2022-08-25T20:45:03.256Z,68.24
2022-08-25T20:49:06.485Z,68.57
2022-08-25T20:53:13.438Z,69.26
2022-08-25T20:57:19.443Z,69.00
2022-08-25T21:01:39.687Z,68.44
2022-08-25T21:05:46.011Z,68.91
2022-08-25T21:09:50.653Z,69.44
2022-08-25T21:13:58.298Z,68.66
2022-08-25T21:18:02.708Z,69.33
2022-08-25T21:22:06.569Z,70.13
2022-08-25T21:26:14.047Z,68.81
2022-08-25T21:30:19.164Z,70.04
2022-08-25T21:34:23.031Z,69.65
2022-08-25T21:38:27.434Z,69.95
2022-08-25T21:42:31.271Z,69.79
2022-08-25T21:46:37.462Z,69.65
2022-08-25T21:50:40.852Z,70.29
2022-08-25T21:54:45.486Z,70.63
2022-08-25T21:58:49.932Z,71.28
2022-08-25T22:02:55.207Z,71.33
2022-08-25T22:06:59.142Z,71.29
2022-08-25T22:11:03.720Z,71.44
2022-08-25T22:15:08.314Z,71.08
2022-08-25T22:19:18.038Z,71.21
2022-08-25T22:23:21.719Z,70.88
2022-08-25T22:27:32.918Z,70.78
2022-08-25T22:31:37.590Z,70.48
2022-08-25T22:35:43.104Z,71.18
2022-08-25T22:39:47.542Z,71.69
2022-08-25T22:43:53.007Z,71.80
2022-08-25T22:47:56.597Z,71.63
2022-08-25T22:52:01.232Z,70.50
2022-08-25T22:56:05.375Z,70.44
2022-08-25T23:00:13.449Z,71.35
2022-08-25T23:04:17.560Z,72.50
2022-08-25T23:08:31.121Z,72.89
2022-08-25T23:12:44.212Z,69.01
2022-08-25T23:16:48.193Z,73.06
2022-08-25T23:21:10.846Z,72.77
2022-08-25T23:25:17.201Z,73.20
2022-08-25T23:29:22.541Z,72.73
2022-08-25T23:33:29.181Z,72.47
2022-08-25T23:37:32.783Z,72.51
2022-08-25T23:41:38.131Z,72.05
2022-08-25T23:45:41.784Z,71.94
2022-08-25T23:49:45.356Z,72.36
2022-08-25T23:53:49.568Z,72.37
2022-08-25T23:57:54.667Z,71.87
